sensor_id;sensor_type;location;lat;lon;timestamp;P1;durP1;ratioP1;P2;durP2;ratioP2
53151;SDS011;39234;53.158;6.322;2022-09-09T00:04:54;14.75;;;10.98;;
53151;SDS011;39234;53.158;6.322;2022-09-09T00:07:57;17.55;;;10.68;;
53151;SDS011;39234;53.158;6.322;2022-09-09T00:12:57;16.77;;;10.63;;
53151;SDS011;39234;53.158;6.322;2022-09-09T00:18:21;15.00;;;11.40;;
53151;SDS011;39234;53.158;6.322;2022-09-09T00:21:11;17.35;;;11.02;;
53151;SDS011;39234;53.158;6.322;2022-09-09T00:23:47;18.90;;;11.35;;
53151;SDS011;39234;53.158;6.322;2022-09-09T00:31:29;24.58;;;12.55;;
53151;SDS011;39234;53.158;6.322;2022-09-09T00:34:03;17.63;;;11.38;;
53151;SDS011;39234;53.158;6.322;2022-09-09T00:36:37;22.38;;;12.82;;
53151;SDS011;39234;53.158;6.322;2022-09-09T00:39:04;18.80;;;12.40;;
53151;SDS011;39234;53.158;6.322;2022-09-09T00:44:06;15.63;;;11.50;;
53151;SDS011;39234;53.158;6.322;2022-09-09T00:50:01;15.27;;;10.30;;
53151;SDS011;39234;53.158;6.322;2022-09-09T00:52:43;15.30;;;11.15;;
53151;SDS011;39234;53.158;6.322;2022-09-09T00:57:51;23.45;;;13.07;;
53151;SDS011;39234;53.158;6.322;2022-09-09T01:00:21;21.08;;;12.27;;
53151;SDS011;39234;53.158;6.322;2022-09-09T01:05:45;20.75;;;11.88;;
53151;SDS011;39234;53.158;6.322;2022-09-09T01:08:30;22.27;;;11.98;;
53151;SDS011;39234;53.158;6.322;2022-09-09T01:10:59;17.88;;;12.05;;
53151;SDS011;39234;53.158;6.322;2022-09-09T01:13:31;23.67;;;12.60;;
53151;SDS011;39234;53.158;6.322;2022-09-09T01:16:00;21.40;;;11.95;;
53151;SDS011;39234;53.158;6.322;2022-09-09T01:18:37;18.33;;;12.13;;
53151;SDS011;39234;53.158;6.322;2022-09-09T01:21:27;19.27;;;11.52;;
53151;SDS011;39234;53.158;6.322;2022-09-09T01:27:06;16.88;;;11.63;;
53151;SDS011;39234;53.158;6.322;2022-09-09T01:29:32;22.92;;;12.52;;
53151;SDS011;39234;53.158;6.322;2022-09-09T01:31:59;17.60;;;11.82;;
53151;SDS011;39234;53.158;6.322;2022-09-09T01:34:28;16.83;;;12.75;;
53151;SDS011;39234;53.158;6.322;2022-09-09T01:37:07;25.10;;;12.75;;
53151;SDS011;39234;53.158;6.322;2022-09-09T01:39:36;21.38;;;11.95;;
53151;SDS011;39234;53.158;6.322;2022-09-09T01:42:05;16.90;;;12.10;;
53151;SDS011;39234;53.158;6.322;2022-09-09T01:44:33;15.65;;;10.25;;
53151;SDS011;39234;53.158;6.322;2022-09-09T01:47:01;21.70;;;11.15;;
53151;SDS011;39234;53.158;6.322;2022-09-09T01:49:27;21.80;;;11.00;;
53151;SDS011;39234;53.158;6.322;2022-09-09T01:51:53;18.45;;;11.68;;
53151;SDS011;39234;53.158;6.322;2022-09-09T01:54:21;20.40;;;11.70;;
53151;SDS011;39234;53.158;6.322;2022-09-09T01:59:50;13.43;;;10.50;;
53151;SDS011;39234;53.158;6.322;2022-09-09T02:04:47;20.73;;;11.13;;
53151;SDS011;39234;53.158;6.322;2022-09-09T02:10:05;25.55;;;12.45;;
53151;SDS011;39234;53.158;6.322;2022-09-09T02:12:34;23.45;;;11.88;;
53151;SDS011;39234;53.158;6.322;2022-09-09T02:15:07;16.27;;;12.00;;
53151;SDS011;39234;53.158;6.322;2022-09-09T02:17:41;14.07;;;10.90;;
53151;SDS011;39234;53.158;6.322;2022-09-09T02:20:08;24.85;;;12.65;;
53151;SDS011;39234;53.158;6.322;2022-09-09T02:22:38;19.40;;;12.73;;
53151;SDS011;39234;53.158;6.322;2022-09-09T02:25:08;28.85;;;12.48;;
53151;SDS011;39234;53.158;6.322;2022-09-09T02:27:37;22.20;;;13.40;;
53151;SDS011;39234;53.158;6.322;2022-09-09T02:30:05;26.23;;;13.30;;
53151;SDS011;39234;53.158;6.322;2022-09-09T02:32:32;22.33;;;13.65;;
53151;SDS011;39234;53.158;6.322;2022-09-09T02:35:05;19.88;;;13.27;;
53151;SDS011;39234;53.158;6.322;2022-09-09T02:37:35;23.33;;;14.68;;
53151;SDS011;39234;53.158;6.322;2022-09-09T02:40:07;20.45;;;13.05;;
53151;SDS011;39234;53.158;6.322;2022-09-09T02:42:43;25.88;;;15.15;;
53151;SDS011;39234;53.158;6.322;2022-09-09T02:45:11;22.92;;;14.10;;
53151;SDS011;39234;53.158;6.322;2022-09-09T02:50:13;26.27;;;14.77;;
53151;SDS011;39234;53.158;6.322;2022-09-09T02:58:17;19.17;;;13.75;;
53151;SDS011;39234;53.158;6.322;2022-09-09T03:00:47;23.48;;;14.55;;
53151;SDS011;39234;53.158;6.322;2022-09-09T03:03:13;27.05;;;15.68;;
53151;SDS011;39234;53.158;6.322;2022-09-09T03:05:42;26.27;;;15.20;;
53151;SDS011;39234;53.158;6.322;2022-09-09T03:08:08;22.58;;;15.00;;
53151;SDS011;39234;53.158;6.322;2022-09-09T03:10:34;27.02;;;15.55;;
53151;SDS011;39234;53.158;6.322;2022-09-09T03:13:00;28.98;;;16.55;;
53151;SDS011;39234;53.158;6.322;2022-09-09T03:15:26;22.58;;;15.20;;
53151;SDS011;39234;53.158;6.322;2022-09-09T03:17:56;28.17;;;16.08;;
53151;SDS011;39234;53.158;6.322;2022-09-09T03:20:26;26.15;;;16.00;;
53151;SDS011;39234;53.158;6.322;2022-09-09T03:22:54;28.08;;;17.08;;
53151;SDS011;39234;53.158;6.322;2022-09-09T03:25:21;19.38;;;14.52;;
53151;SDS011;39234;53.158;6.322;2022-09-09T03:27:51;24.95;;;14.10;;
53151;SDS011;39234;53.158;6.322;2022-09-09T03:30:20;29.85;;;16.10;;
53151;SDS011;39234;53.158;6.322;2022-09-09T03:32:46;28.25;;;14.48;;
53151;SDS011;39234;53.158;6.322;2022-09-09T03:35:13;25.85;;;14.32;;
53151;SDS011;39234;53.158;6.322;2022-09-09T03:37:39;23.27;;;14.43;;
53151;SDS011;39234;53.158;6.322;2022-09-09T03:40:04;28.80;;;13.82;;
53151;SDS011;39234;53.158;6.322;2022-09-09T03:42:31;22.77;;;13.90;;
53151;SDS011;39234;53.158;6.322;2022-09-09T03:44:57;20.42;;;13.00;;
53151;SDS011;39234;53.158;6.322;2022-09-09T03:47:24;21.33;;;12.38;;
53151;SDS011;39234;53.158;6.322;2022-09-09T03:49:50;20.63;;;12.38;;
53151;SDS011;39234;53.158;6.322;2022-09-09T03:52:16;24.15;;;13.30;;
53151;SDS011;39234;53.158;6.322;2022-09-09T03:54:43;19.23;;;12.48;;
53151;SDS011;39234;53.158;6.322;2022-09-09T03:57:09;20.75;;;11.77;;
53151;SDS011;39234;53.158;6.322;2022-09-09T03:59:35;21.10;;;11.68;;
53151;SDS011;39234;53.158;6.322;2022-09-09T04:02:01;17.63;;;12.55;;
53151;SDS011;39234;53.158;6.322;2022-09-09T04:04:27;18.60;;;12.25;;
53151;SDS011;39234;53.158;6.322;2022-09-09T04:06:53;18.02;;;11.65;;
53151;SDS011;39234;53.158;6.322;2022-09-09T04:09:19;29.15;;;12.82;;
53151;SDS011;39234;53.158;6.322;2022-09-09T04:11:44;19.88;;;12.52;;
53151;SDS011;39234;53.158;6.322;2022-09-09T04:14:11;20.02;;;12.35;;
53151;SDS011;39234;53.158;6.322;2022-09-09T04:16:37;18.35;;;10.32;;
53151;SDS011;39234;53.158;6.322;2022-09-09T04:19:04;15.63;;;10.27;;
53151;SDS011;39234;53.158;6.322;2022-09-09T04:21:31;15.07;;;10.35;;
53151;SDS011;39234;53.158;6.322;2022-09-09T04:23:57;16.42;;;11.02;;
53151;SDS011;39234;53.158;6.322;2022-09-09T04:26:23;18.00;;;10.57;;
53151;SDS011;39234;53.158;6.322;2022-09-09T04:28:49;13.93;;;9.35;;
53151;SDS011;39234;53.158;6.322;2022-09-09T04:31:19;20.00;;;10.82;;
53151;SDS011;39234;53.158;6.322;2022-09-09T04:33:48;17.13;;;10.25;;
53151;SDS011;39234;53.158;6.322;2022-09-09T04:36:14;18.33;;;10.18;;
53151;SDS011;39234;53.158;6.322;2022-09-09T04:38:40;14.55;;;9.85;;
53151;SDS011;39234;53.158;6.322;2022-09-09T04:41:06;17.38;;;10.85;;
53151;SDS011;39234;53.158;6.322;2022-09-09T04:43:33;19.25;;;10.68;;
53151;SDS011;39234;53.158;6.322;2022-09-09T04:45:59;13.52;;;9.85;;
53151;SDS011;39234;53.158;6.322;2022-09-09T04:48:25;21.95;;;11.32;;
53151;SDS011;39234;53.158;6.322;2022-09-09T04:50:55;23.63;;;11.32;;
53151;SDS011;39234;53.158;6.322;2022-09-09T04:53:21;15.13;;;10.50;;
53151;SDS011;39234;53.158;6.322;2022-09-09T04:55:48;22.52;;;10.20;;
53151;SDS011;39234;53.158;6.322;2022-09-09T04:58:14;19.90;;;10.13;;
53151;SDS011;39234;53.158;6.322;2022-09-09T05:00:40;23.60;;;12.80;;
53151;SDS011;39234;53.158;6.322;2022-09-09T05:03:06;16.45;;;10.43;;
53151;SDS011;39234;53.158;6.322;2022-09-09T05:05:34;21.17;;;11.38;;
53151;SDS011;39234;53.158;6.322;2022-09-09T05:08:00;24.75;;;12.00;;
53151;SDS011;39234;53.158;6.322;2022-09-09T05:10:30;20.70;;;11.82;;
53151;SDS011;39234;53.158;6.322;2022-09-09T05:12:56;16.77;;;11.50;;
53151;SDS011;39234;53.158;6.322;2022-09-09T05:15:22;17.70;;;10.65;;
53151;SDS011;39234;53.158;6.322;2022-09-09T05:17:48;18.05;;;11.32;;
53151;SDS011;39234;53.158;6.322;2022-09-09T05:20:14;16.98;;;12.18;;
53151;SDS011;39234;53.158;6.322;2022-09-09T05:22:39;19.20;;;12.35;;
53151;SDS011;39234;53.158;6.322;2022-09-09T05:25:05;20.98;;;12.10;;
53151;SDS011;39234;53.158;6.322;2022-09-09T05:27:33;21.95;;;11.82;;
53151;SDS011;39234;53.158;6.322;2022-09-09T05:29:59;18.58;;;11.48;;
53151;SDS011;39234;53.158;6.322;2022-09-09T05:32:25;17.65;;;11.18;;
53151;SDS011;39234;53.158;6.322;2022-09-09T05:34:51;19.83;;;12.25;;
53151;SDS011;39234;53.158;6.322;2022-09-09T05:37:17;16.67;;;10.05;;
53151;SDS011;39234;53.158;6.322;2022-09-09T05:39:43;22.17;;;12.65;;
53151;SDS011;39234;53.158;6.322;2022-09-09T05:42:09;20.00;;;12.98;;
53151;SDS011;39234;53.158;6.322;2022-09-09T05:44:35;17.02;;;11.23;;
53151;SDS011;39234;53.158;6.322;2022-09-09T05:47:02;22.30;;;12.35;;
53151;SDS011;39234;53.158;6.322;2022-09-09T05:49:28;18.77;;;12.02;;
53151;SDS011;39234;53.158;6.322;2022-09-09T05:51:54;16.45;;;11.85;;
53151;SDS011;39234;53.158;6.322;2022-09-09T05:54:19;20.15;;;12.65;;
53151;SDS011;39234;53.158;6.322;2022-09-09T05:56:45;16.90;;;12.00;;
53151;SDS011;39234;53.158;6.322;2022-09-09T05:59:11;21.55;;;13.35;;
53151;SDS011;39234;53.158;6.322;2022-09-09T06:01:37;14.65;;;11.73;;
53151;SDS011;39234;53.158;6.322;2022-09-09T06:04:07;19.38;;;12.23;;
53151;SDS011;39234;53.158;6.322;2022-09-09T06:06:34;17.00;;;11.52;;
53151;SDS011;39234;53.158;6.322;2022-09-09T06:09:02;20.63;;;12.00;;
53151;SDS011;39234;53.158;6.322;2022-09-09T06:11:31;18.55;;;11.80;;
53151;SDS011;39234;53.158;6.322;2022-09-09T06:13:59;17.85;;;11.55;;
53151;SDS011;39234;53.158;6.322;2022-09-09T06:16:25;17.80;;;11.82;;
53151;SDS011;39234;53.158;6.322;2022-09-09T06:18:53;19.63;;;12.52;;
53151;SDS011;39234;53.158;6.322;2022-09-09T06:23:46;14.95;;;10.68;;
53151;SDS011;39234;53.158;6.322;2022-09-09T06:26:13;18.30;;;11.80;;
53151;SDS011;39234;53.158;6.322;2022-09-09T06:28:44;18.25;;;12.15;;
53151;SDS011;39234;53.158;6.322;2022-09-09T06:31:13;16.40;;;11.23;;
53151;SDS011;39234;53.158;6.322;2022-09-09T06:33:42;12.60;;;9.25;;
53151;SDS011;39234;53.158;6.322;2022-09-09T06:36:16;15.50;;;10.80;;
53151;SDS011;39234;53.158;6.322;2022-09-09T06:38:47;14.77;;;9.70;;
53151;SDS011;39234;53.158;6.322;2022-09-09T06:41:14;14.75;;;8.45;;
53151;SDS011;39234;53.158;6.322;2022-09-09T06:43:42;16.25;;;8.88;;
53151;SDS011;39234;53.158;6.322;2022-09-09T06:46:12;13.90;;;8.82;;
53151;SDS011;39234;53.158;6.322;2022-09-09T06:48:39;12.13;;;8.82;;
53151;SDS011;39234;53.158;6.322;2022-09-09T06:51:28;10.23;;;7.72;;
53151;SDS011;39234;53.158;6.322;2022-09-09T06:53:54;16.83;;;8.32;;
53151;SDS011;39234;53.158;6.322;2022-09-09T06:56:28;12.43;;;8.65;;
53151;SDS011;39234;53.158;6.322;2022-09-09T06:58:57;11.73;;;8.30;;
53151;SDS011;39234;53.158;6.322;2022-09-09T07:01:27;14.95;;;8.85;;
53151;SDS011;39234;53.158;6.322;2022-09-09T07:03:56;11.48;;;8.25;;
53151;SDS011;39234;53.158;6.322;2022-09-09T07:06:28;12.65;;;8.38;;
53151;SDS011;39234;53.158;6.322;2022-09-09T07:09:06;13.70;;;8.68;;
53151;SDS011;39234;53.158;6.322;2022-09-09T07:11:34;11.18;;;8.07;;
53151;SDS011;39234;53.158;6.322;2022-09-09T07:14:13;14.90;;;8.90;;
53151;SDS011;39234;53.158;6.322;2022-09-09T07:16:42;12.90;;;8.52;;
53151;SDS011;39234;53.158;6.322;2022-09-09T07:19:09;15.75;;;9.18;;
53151;SDS011;39234;53.158;6.322;2022-09-09T07:21:36;13.00;;;9.23;;
53151;SDS011;39234;53.158;6.322;2022-09-09T07:24:02;17.27;;;8.70;;
53151;SDS011;39234;53.158;6.322;2022-09-09T07:26:29;11.20;;;7.45;;
53151;SDS011;39234;53.158;6.322;2022-09-09T07:28:55;10.55;;;7.60;;
53151;SDS011;39234;53.158;6.322;2022-09-09T07:33:52;12.43;;;7.63;;
53151;SDS011;39234;53.158;6.322;2022-09-09T07:36:20;12.93;;;7.65;;
53151;SDS011;39234;53.158;6.322;2022-09-09T07:38:51;10.68;;;7.70;;
53151;SDS011;39234;53.158;6.322;2022-09-09T07:41:52;11.70;;;7.78;;
53151;SDS011;39234;53.158;6.322;2022-09-09T07:44:16;15.95;;;8.32;;
53151;SDS011;39234;53.158;6.322;2022-09-09T07:46:44;9.18;;;6.97;;
53151;SDS011;39234;53.158;6.322;2022-09-09T07:49:11;11.50;;;7.38;;
53151;SDS011;39234;53.158;6.322;2022-09-09T07:51:38;11.05;;;6.97;;
53151;SDS011;39234;53.158;6.322;2022-09-09T07:54:07;9.60;;;6.22;;
53151;SDS011;39234;53.158;6.322;2022-09-09T07:56:35;9.85;;;6.45;;
53151;SDS011;39234;53.158;6.322;2022-09-09T07:59:02;12.77;;;6.28;;
53151;SDS011;39234;53.158;6.322;2022-09-09T08:01:33;9.63;;;6.15;;
53151;SDS011;39234;53.158;6.322;2022-09-09T08:04:21;10.47;;;6.13;;
53151;SDS011;39234;53.158;6.322;2022-09-09T08:06:49;11.48;;;6.93;;
53151;SDS011;39234;53.158;6.322;2022-09-09T08:09:19;18.58;;;6.85;;
53151;SDS011;39234;53.158;6.322;2022-09-09T08:11:46;8.85;;;5.90;;
53151;SDS011;39234;53.158;6.322;2022-09-09T08:14:12;10.45;;;6.30;;
53151;SDS011;39234;53.158;6.322;2022-09-09T08:16:40;8.45;;;6.00;;
53151;SDS011;39234;53.158;6.322;2022-09-09T08:19:07;9.73;;;6.00;;
53151;SDS011;39234;53.158;6.322;2022-09-09T08:21:34;13.20;;;6.40;;
53151;SDS011;39234;53.158;6.322;2022-09-09T08:24:02;13.43;;;6.00;;
53151;SDS011;39234;53.158;6.322;2022-09-09T08:26:34;10.82;;;5.60;;
53151;SDS011;39234;53.158;6.322;2022-09-09T08:29:03;11.88;;;5.15;;
53151;SDS011;39234;53.158;6.322;2022-09-09T08:31:31;13.27;;;5.95;;
53151;SDS011;39234;53.158;6.322;2022-09-09T08:34:04;13.65;;;4.93;;
53151;SDS011;39234;53.158;6.322;2022-09-09T08:36:36;9.85;;;5.30;;
53151;SDS011;39234;53.158;6.322;2022-09-09T08:39:04;9.68;;;5.25;;
53151;SDS011;39234;53.158;6.322;2022-09-09T08:50:08;10.55;;;5.18;;
53151;SDS011;39234;53.158;6.322;2022-09-09T08:58:28;9.18;;;4.57;;
53151;SDS011;39234;53.158;6.322;2022-09-09T09:09:02;16.90;;;4.90;;
53151;SDS011;39234;53.158;6.322;2022-09-09T09:11:40;9.63;;;4.45;;
53151;SDS011;39234;53.158;6.322;2022-09-09T09:14:15;12.68;;;3.53;;
53151;SDS011;39234;53.158;6.322;2022-09-09T09:16:56;9.80;;;3.92;;
53151;SDS011;39234;53.158;6.322;2022-09-09T09:19:28;10.32;;;3.67;;
53151;SDS011;39234;53.158;6.322;2022-09-09T09:24:40;8.93;;;3.65;;
53151;SDS011;39234;53.158;6.322;2022-09-09T09:27:20;8.52;;;3.33;;
53151;SDS011;39234;53.158;6.322;2022-09-09T09:30:23;12.95;;;3.92;;
53151;SDS011;39234;53.158;6.322;2022-09-09T09:33:02;8.40;;;3.22;;
53151;SDS011;39234;53.158;6.322;2022-09-09T09:35:28;9.98;;;4.22;;
53151;SDS011;39234;53.158;6.322;2022-09-09T09:37:54;12.90;;;4.35;;
53151;SDS011;39234;53.158;6.322;2022-09-09T09:40:20;10.65;;;3.00;;
53151;SDS011;39234;53.158;6.322;2022-09-09T09:42:49;13.20;;;3.35;;
53151;SDS011;39234;53.158;6.322;2022-09-09T09:48:11;8.68;;;2.97;;
53151;SDS011;39234;53.158;6.322;2022-09-09T09:50:46;15.50;;;3.15;;
53151;SDS011;39234;53.158;6.322;2022-09-09T09:53:26;11.90;;;3.00;;
53151;SDS011;39234;53.158;6.322;2022-09-09T09:56:00;10.00;;;2.97;;
53151;SDS011;39234;53.158;6.322;2022-09-09T09:58:53;13.48;;;3.47;;
53151;SDS011;39234;53.158;6.322;2022-09-09T10:01:28;11.85;;;2.80;;
53151;SDS011;39234;53.158;6.322;2022-09-09T10:04:20;7.32;;;2.65;;
53151;SDS011;39234;53.158;6.322;2022-09-09T10:06:45;13.82;;;3.08;;
53151;SDS011;39234;53.158;6.322;2022-09-09T10:09:25;9.88;;;2.80;;
53151;SDS011;39234;53.158;6.322;2022-09-09T10:14:35;14.10;;;3.47;;
53151;SDS011;39234;53.158;6.322;2022-09-09T10:17:23;11.95;;;3.20;;
53151;SDS011;39234;53.158;6.322;2022-09-09T10:20:30;12.10;;;3.50;;
53151;SDS011;39234;53.158;6.322;2022-09-09T10:22:56;18.45;;;3.17;;
53151;SDS011;39234;53.158;6.322;2022-09-09T10:31:17;11.00;;;2.60;;
53151;SDS011;39234;53.158;6.322;2022-09-09T10:37:00;9.18;;;2.05;;
53151;SDS011;39234;53.158;6.322;2022-09-09T10:39:37;6.80;;;1.85;;
53151;SDS011;39234;53.158;6.322;2022-09-09T10:42:14;10.87;;;2.23;;
53151;SDS011;39234;53.158;6.322;2022-09-09T10:44:54;9.18;;;2.10;;
53151;SDS011;39234;53.158;6.322;2022-09-09T10:50:08;9.35;;;1.88;;
53151;SDS011;39234;53.158;6.322;2022-09-09T10:55:41;7.25;;;1.88;;
53151;SDS011;39234;53.158;6.322;2022-09-09T10:58:10;8.60;;;2.13;;
53151;SDS011;39234;53.158;6.322;2022-09-09T11:00:41;9.95;;;1.80;;
53151;SDS011;39234;53.158;6.322;2022-09-09T11:03:21;9.48;;;1.98;;
53151;SDS011;39234;53.158;6.322;2022-09-09T11:06:00;9.80;;;1.77;;
53151;SDS011;39234;53.158;6.322;2022-09-09T11:08:30;8.40;;;1.67;;
53151;SDS011;39234;53.158;6.322;2022-09-09T11:13:40;8.55;;;2.00;;
53151;SDS011;39234;53.158;6.322;2022-09-09T11:21:46;12.65;;;2.15;;
53151;SDS011;39234;53.158;6.322;2022-09-09T11:40:18;8.13;;;1.63;;
53151;SDS011;39234;53.158;6.322;2022-09-09T11:43:02;6.22;;;1.48;;
53151;SDS011;39234;53.158;6.322;2022-09-09T11:45:30;6.57;;;1.85;;
53151;SDS011;39234;53.158;6.322;2022-09-09T11:47:59;5.65;;;1.48;;
53151;SDS011;39234;53.158;6.322;2022-09-09T11:55:48;9.07;;;1.80;;
53151;SDS011;39234;53.158;6.322;2022-09-09T11:58:38;7.72;;;1.60;;
53151;SDS011;39234;53.158;6.322;2022-09-09T12:01:29;8.15;;;1.60;;
53151;SDS011;39234;53.158;6.322;2022-09-09T12:06:45;8.77;;;1.77;;
53151;SDS011;39234;53.158;6.322;2022-09-09T12:12:34;6.88;;;1.67;;
53151;SDS011;39234;53.158;6.322;2022-09-09T12:27:48;9.02;;;1.90;;
53151;SDS011;39234;53.158;6.322;2022-09-09T12:30:32;9.05;;;1.60;;
53151;SDS011;39234;53.158;6.322;2022-09-09T12:33:20;7.88;;;2.10;;
53151;SDS011;39234;53.158;6.322;2022-09-09T12:36:05;7.22;;;1.50;;
53151;SDS011;39234;53.158;6.322;2022-09-09T12:38:41;6.75;;;1.42;;
53151;SDS011;39234;53.158;6.322;2022-09-09T12:41:22;7.68;;;1.40;;
53151;SDS011;39234;53.158;6.322;2022-09-09T12:43:49;7.07;;;1.92;;
53151;SDS011;39234;53.158;6.322;2022-09-09T12:46:24;7.80;;;1.67;;
53151;SDS011;39234;53.158;6.322;2022-09-09T12:48:58;7.25;;;1.70;;
53151;SDS011;39234;53.158;6.322;2022-09-09T12:51:31;5.70;;;1.65;;
53151;SDS011;39234;53.158;6.322;2022-09-09T12:53:58;9.77;;;1.88;;
53151;SDS011;39234;53.158;6.322;2022-09-09T12:56:26;5.85;;;1.60;;
53151;SDS011;39234;53.158;6.322;2022-09-09T12:58:55;8.82;;;2.42;;
53151;SDS011;39234;53.158;6.322;2022-09-09T13:01:31;9.70;;;2.10;;
53151;SDS011;39234;53.158;6.322;2022-09-09T13:04:01;7.53;;;1.77;;
53151;SDS011;39234;53.158;6.322;2022-09-09T13:06:30;12.07;;;1.40;;
53151;SDS011;39234;53.158;6.322;2022-09-09T13:08:59;6.80;;;1.70;;
53151;SDS011;39234;53.158;6.322;2022-09-09T13:11:28;5.68;;;1.52;;
53151;SDS011;39234;53.158;6.322;2022-09-09T13:14:04;8.63;;;1.70;;
53151;SDS011;39234;53.158;6.322;2022-09-09T13:16:34;6.45;;;1.60;;
53151;SDS011;39234;53.158;6.322;2022-09-09T13:19:01;10.23;;;1.70;;
53151;SDS011;39234;53.158;6.322;2022-09-09T13:21:33;7.15;;;1.27;;
53151;SDS011;39234;53.158;6.322;2022-09-09T13:23:59;10.43;;;1.77;;
53151;SDS011;39234;53.158;6.322;2022-09-09T13:26:28;10.27;;;1.58;;
53151;SDS011;39234;53.158;6.322;2022-09-09T13:28:55;7.38;;;1.45;;
53151;SDS011;39234;53.158;6.322;2022-09-09T13:31:39;8.10;;;1.70;;
53151;SDS011;39234;53.158;6.322;2022-09-09T13:37:37;7.05;;;1.42;;
53151;SDS011;39234;53.158;6.322;2022-09-09T13:39:52;10.68;;;1.77;;
53151;SDS011;39234;53.158;6.322;2022-09-09T13:42:26;6.18;;;1.40;;
53151;SDS011;39234;53.158;6.322;2022-09-09T13:44:54;6.40;;;1.45;;
53151;SDS011;39234;53.158;6.322;2022-09-09T13:47:22;7.70;;;1.33;;
53151;SDS011;39234;53.158;6.322;2022-09-09T13:49:55;9.68;;;1.48;;
53151;SDS011;39234;53.158;6.322;2022-09-09T13:52:21;6.30;;;1.20;;
53151;SDS011;39234;53.158;6.322;2022-09-09T13:54:50;14.85;;;2.42;;
53151;SDS011;39234;53.158;6.322;2022-09-09T13:57:24;7.57;;;1.33;;
53151;SDS011;39234;53.158;6.322;2022-09-09T13:59:51;7.85;;;1.30;;
53151;SDS011;39234;53.158;6.322;2022-09-09T14:02:18;10.65;;;1.30;;
53151;SDS011;39234;53.158;6.322;2022-09-09T14:04:44;7.35;;;1.58;;
53151;SDS011;39234;53.158;6.322;2022-09-09T14:07:13;5.28;;;1.38;;
53151;SDS011;39234;53.158;6.322;2022-09-09T14:09:41;6.87;;;1.20;;
53151;SDS011;39234;53.158;6.322;2022-09-09T14:12:10;7.90;;;1.33;;
53151;SDS011;39234;53.158;6.322;2022-09-09T14:14:37;4.40;;;0.90;;
53151;SDS011;39234;53.158;6.322;2022-09-09T14:17:03;7.30;;;0.90;;
53151;SDS011;39234;53.158;6.322;2022-09-09T14:19:29;3.78;;;0.90;;
53151;SDS011;39234;53.158;6.322;2022-09-09T14:21:56;3.85;;;0.80;;
53151;SDS011;39234;53.158;6.322;2022-09-09T14:24:22;6.13;;;1.10;;
53151;SDS011;39234;53.158;6.322;2022-09-09T14:26:48;5.10;;;0.93;;
53151;SDS011;39234;53.158;6.322;2022-09-09T14:29:14;7.40;;;1.40;;
53151;SDS011;39234;53.158;6.322;2022-09-09T14:31:40;5.05;;;1.13;;
53151;SDS011;39234;53.158;6.322;2022-09-09T14:34:05;6.65;;;1.40;;
53151;SDS011;39234;53.158;6.322;2022-09-09T14:36:31;5.63;;;1.38;;
53151;SDS011;39234;53.158;6.322;2022-09-09T14:38:57;5.38;;;1.35;;
53151;SDS011;39234;53.158;6.322;2022-09-09T14:41:23;6.30;;;1.30;;
53151;SDS011;39234;53.158;6.322;2022-09-09T14:43:50;8.38;;;1.25;;
53151;SDS011;39234;53.158;6.322;2022-09-09T14:46:18;5.60;;;1.38;;
53151;SDS011;39234;53.158;6.322;2022-09-09T14:48:45;6.18;;;1.25;;
53151;SDS011;39234;53.158;6.322;2022-09-09T14:51:17;4.50;;;1.20;;
53151;SDS011;39234;53.158;6.322;2022-09-09T14:53:46;3.90;;;1.23;;
53151;SDS011;39234;53.158;6.322;2022-09-09T14:56:13;12.50;;;2.15;;
53151;SDS011;39234;53.158;6.322;2022-09-09T14:58:41;6.10;;;1.40;;
53151;SDS011;39234;53.158;6.322;2022-09-09T15:01:14;4.70;;;1.50;;
53151;SDS011;39234;53.158;6.322;2022-09-09T15:03:41;7.80;;;1.30;;
53151;SDS011;39234;53.158;6.322;2022-09-09T15:06:09;5.75;;;1.45;;
53151;SDS011;39234;53.158;6.322;2022-09-09T15:08:37;7.22;;;1.80;;
53151;SDS011;39234;53.158;6.322;2022-09-09T15:11:05;5.15;;;1.35;;
53151;SDS011;39234;53.158;6.322;2022-09-09T15:13:35;6.20;;;1.45;;
53151;SDS011;39234;53.158;6.322;2022-09-09T15:16:05;5.68;;;1.80;;
53151;SDS011;39234;53.158;6.322;2022-09-09T15:18:42;5.80;;;1.13;;
53151;SDS011;39234;53.158;6.322;2022-09-09T15:21:16;4.93;;;1.40;;
53151;SDS011;39234;53.158;6.322;2022-09-09T15:23:44;6.85;;;1.40;;
53151;SDS011;39234;53.158;6.322;2022-09-09T15:26:10;4.55;;;1.10;;
53151;SDS011;39234;53.158;6.322;2022-09-09T15:28:39;6.50;;;1.23;;
53151;SDS011;39234;53.158;6.322;2022-09-09T15:31:18;6.22;;;1.15;;
53151;SDS011;39234;53.158;6.322;2022-09-09T15:33:48;5.45;;;1.10;;
53151;SDS011;39234;53.158;6.322;2022-09-09T15:36:21;5.90;;;1.40;;
53151;SDS011;39234;53.158;6.322;2022-09-09T15:38:48;6.05;;;1.23;;
53151;SDS011;39234;53.158;6.322;2022-09-09T15:41:15;7.05;;;1.00;;
53151;SDS011;39234;53.158;6.322;2022-09-09T15:43:43;5.57;;;1.20;;
53151;SDS011;39234;53.158;6.322;2022-09-09T15:51:11;6.97;;;1.30;;
53151;SDS011;39234;53.158;6.322;2022-09-09T15:53:37;6.43;;;1.20;;
53151;SDS011;39234;53.158;6.322;2022-09-09T15:56:06;5.32;;;1.10;;
53151;SDS011;39234;53.158;6.322;2022-09-09T15:58:33;8.38;;;1.20;;
53151;SDS011;39234;53.158;6.322;2022-09-09T16:01:04;6.28;;;1.40;;
53151;SDS011;39234;53.158;6.322;2022-09-09T16:03:38;5.93;;;1.15;;
53151;SDS011;39234;53.158;6.322;2022-09-09T16:06:07;7.03;;;1.77;;
53151;SDS011;39234;53.158;6.322;2022-09-09T16:08:34;7.05;;;2.10;;
53151;SDS011;39234;53.158;6.322;2022-09-09T16:11:05;5.63;;;1.67;;
53151;SDS011;39234;53.158;6.322;2022-09-09T16:13:34;4.75;;;1.40;;
53151;SDS011;39234;53.158;6.322;2022-09-09T16:16:01;7.95;;;1.50;;
53151;SDS011;39234;53.158;6.322;2022-09-09T16:18:32;8.85;;;1.55;;
53151;SDS011;39234;53.158;6.322;2022-09-09T16:21:02;5.22;;;1.45;;
53151;SDS011;39234;53.158;6.322;2022-09-09T16:23:30;4.75;;;1.27;;
53151;SDS011;39234;53.158;6.322;2022-09-09T16:25:57;7.65;;;1.67;;
53151;SDS011;39234;53.158;6.322;2022-09-09T16:28:23;5.38;;;1.23;;
53151;SDS011;39234;53.158;6.322;2022-09-09T16:30:49;6.03;;;1.30;;
53151;SDS011;39234;53.158;6.322;2022-09-09T16:33:15;6.28;;;1.42;;
53151;SDS011;39234;53.158;6.322;2022-09-09T16:35:41;3.53;;;1.25;;
53151;SDS011;39234;53.158;6.322;2022-09-09T16:38:07;5.05;;;1.30;;
53151;SDS011;39234;53.158;6.322;2022-09-09T16:40:36;4.53;;;1.50;;
53151;SDS011;39234;53.158;6.322;2022-09-09T16:43:05;5.15;;;1.50;;
53151;SDS011;39234;53.158;6.322;2022-09-09T16:45:32;6.13;;;1.52;;
53151;SDS011;39234;53.158;6.322;2022-09-09T16:47:58;9.88;;;1.95;;
53151;SDS011;39234;53.158;6.322;2022-09-09T16:50:25;5.80;;;1.75;;
53151;SDS011;39234;53.158;6.322;2022-09-09T16:52:52;8.30;;;1.63;;
53151;SDS011;39234;53.158;6.322;2022-09-09T16:55:18;5.45;;;1.23;;
53151;SDS011;39234;53.158;6.322;2022-09-09T16:57:47;4.68;;;1.40;;
53151;SDS011;39234;53.158;6.322;2022-09-09T17:00:15;5.18;;;1.48;;
53151;SDS011;39234;53.158;6.322;2022-09-09T17:02:42;7.20;;;1.70;;
53151;SDS011;39234;53.158;6.322;2022-09-09T17:05:08;7.90;;;1.88;;
53151;SDS011;39234;53.158;6.322;2022-09-09T17:07:34;5.18;;;1.52;;
53151;SDS011;39234;53.158;6.322;2022-09-09T17:10:01;8.07;;;1.70;;
53151;SDS011;39234;53.158;6.322;2022-09-09T17:12:27;5.63;;;1.40;;
53151;SDS011;39234;53.158;6.322;2022-09-09T17:14:52;6.53;;;1.38;;
53151;SDS011;39234;53.158;6.322;2022-09-09T17:17:20;6.63;;;1.65;;
53151;SDS011;39234;53.158;6.322;2022-09-09T17:19:46;4.25;;;1.42;;
53151;SDS011;39234;53.158;6.322;2022-09-09T17:22:12;4.22;;;1.35;;
53151;SDS011;39234;53.158;6.322;2022-09-09T17:24:38;5.38;;;1.50;;